Stamford, South Dakota
Current Conditions -  °F | °C
As of 1:55 PM on Thursday 20 Nov 2014 (Local Time) from KPHP Reporting Station
Clear Clear  
Wind Chill: 18°   Ceiling: Unl
Heat Index: 27°   Visibility: 10mi
Dew Point: 20°   Wind: 9mph
Humidity: 75%   Direction: 120°ESE
Pressure: 30.01"   Gusts: NA
Location:  44.3169°N, 101.368°W
Report Text: KPHP 202055Z AUTO 12008KT 10SM CLR M03/M07 A3001 RMK AO2 SLP191 T10281067 56018
Loading
Personal Weather Stations






























Interactive Weather Map New forecast layout! Learn more

10-Day Weather Forecast

Advertisements
Track Severe Weather on mobile